sensor_id;sensor_type;location;lat;lon;timestamp;temperature;humidity
20416;DHT22;10367;52.202;5.996;2022-09-09T00:02:08;15.70;99.90
20416;DHT22;10367;52.202;5.996;2022-09-09T00:04:41;15.70;99.90
20416;DHT22;10367;52.202;5.996;2022-09-09T00:07:13;15.70;99.90
20416;DHT22;10367;52.202;5.996;2022-09-09T00:09:46;15.60;99.90
20416;DHT22;10367;52.202;5.996;2022-09-09T00:12:20;15.60;99.90
20416;DHT22;10367;52.202;5.996;2022-09-09T00:14:53;15.50;99.90
20416;DHT22;10367;52.202;5.996;2022-09-09T00:17:32;15.50;99.90
20416;DHT22;10367;52.202;5.996;2022-09-09T00:20:11;15.40;99.90
20416;DHT22;10367;52.202;5.996;2022-09-09T00:22:44;15.30;99.90
20416;DHT22;10367;52.202;5.996;2022-09-09T00:25:22;15.30;99.90
20416;DHT22;10367;52.202;5.996;2022-09-09T00:27:52;15.40;99.90
20416;DHT22;10367;52.202;5.996;2022-09-09T00:30:23;15.40;99.90
20416;DHT22;10367;52.202;5.996;2022-09-09T00:32:58;15.30;99.90
20416;DHT22;10367;52.202;5.996;2022-09-09T00:35:29;15.20;99.90
20416;DHT22;10367;52.202;5.996;2022-09-09T00:38:03;15.20;99.90
20416;DHT22;10367;52.202;5.996;2022-09-09T00:40:35;15.20;99.90
20416;DHT22;10367;52.202;5.996;2022-09-09T00:43:18;15.20;99.90
20416;DHT22;10367;52.202;5.996;2022-09-09T00:46:15;15.20;99.90
20416;DHT22;10367;52.202;5.996;2022-09-09T00:49:00;15.20;99.90
20416;DHT22;10367;52.202;5.996;2022-09-09T00:51:38;15.20;99.90
20416;DHT22;10367;52.202;5.996;2022-09-09T00:54:28;15.20;99.90
20416;DHT22;10367;52.202;5.996;2022-09-09T00:57:13;15.20;99.90
20416;DHT22;10367;52.202;5.996;2022-09-09T00:59:47;15.20;99.90
20416;DHT22;10367;52.202;5.996;2022-09-09T01:02:28;15.20;99.90
20416;DHT22;10367;52.202;5.996;2022-09-09T01:05:04;15.20;99.90
20416;DHT22;10367;52.202;5.996;2022-09-09T01:07:34;15.10;99.90
20416;DHT22;10367;52.202;5.996;2022-09-09T01:10:07;15.10;99.90
20416;DHT22;10367;52.202;5.996;2022-09-09T01:12:41;15.10;99.90
20416;DHT22;10367;52.202;5.996;2022-09-09T01:15:14;15.10;99.90
20416;DHT22;10367;52.202;5.996;2022-09-09T01:17:54;15.10;99.90
20416;DHT22;10367;52.202;5.996;2022-09-09T01:20:31;15.10;99.90
20416;DHT22;10367;52.202;5.996;2022-09-09T01:23:36;15.10;99.90
20416;DHT22;10367;52.202;5.996;2022-09-09T01:26:15;15.00;99.90
20416;DHT22;10367;52.202;5.996;2022-09-09T01:28:47;14.90;99.90
20416;DHT22;10367;52.202;5.996;2022-09-09T01:31:19;14.90;99.90
20416;DHT22;10367;52.202;5.996;2022-09-09T01:33:49;14.80;99.90
20416;DHT22;10367;52.202;5.996;2022-09-09T01:36:26;14.80;99.90
20416;DHT22;10367;52.202;5.996;2022-09-09T01:38:56;14.80;99.90
20416;DHT22;10367;52.202;5.996;2022-09-09T01:41:27;14.70;99.90
20416;DHT22;10367;52.202;5.996;2022-09-09T01:43:57;14.70;99.90
20416;DHT22;10367;52.202;5.996;2022-09-09T01:46:27;14.60;99.90
20416;DHT22;10367;52.202;5.996;2022-09-09T01:48:57;14.60;99.90
20416;DHT22;10367;52.202;5.996;2022-09-09T01:51:27;14.50;99.90
20416;DHT22;10367;52.202;5.996;2022-09-09T01:53:56;14.40;99.90
20416;DHT22;10367;52.202;5.996;2022-09-09T01:56:40;14.30;99.90
20416;DHT22;10367;52.202;5.996;2022-09-09T01:59:23;14.30;99.90
20416;DHT22;10367;52.202;5.996;2022-09-09T02:02:01;14.20;99.90
20416;DHT22;10367;52.202;5.996;2022-09-09T02:04:39;14.20;99.90
20416;DHT22;10367;52.202;5.996;2022-09-09T02:07:28;14.20;99.90
20416;DHT22;10367;52.202;5.996;2022-09-09T02:10:02;14.20;99.90
20416;DHT22;10367;52.202;5.996;2022-09-09T02:12:36;14.20;99.90
20416;DHT22;10367;52.202;5.996;2022-09-09T02:15:13;14.20;99.90
20416;DHT22;10367;52.202;5.996;2022-09-09T02:17:46;14.20;99.90
20416;DHT22;10367;52.202;5.996;2022-09-09T02:20:18;14.10;99.90
20416;DHT22;10367;52.202;5.996;2022-09-09T02:22:49;14.10;99.90
20416;DHT22;10367;52.202;5.996;2022-09-09T02:25:22;14.10;99.90
20416;DHT22;10367;52.202;5.996;2022-09-09T02:27:52;14.00;99.90
20416;DHT22;10367;52.202;5.996;2022-09-09T02:30:21;14.00;99.90
20416;DHT22;10367;52.202;5.996;2022-09-09T02:32:52;14.00;99.90
20416;DHT22;10367;52.202;5.996;2022-09-09T02:35:24;13.90;99.90
20416;DHT22;10367;52.202;5.996;2022-09-09T02:37:58;13.90;99.90
20416;DHT22;10367;52.202;5.996;2022-09-09T02:40:28;13.90;99.90
20416;DHT22;10367;52.202;5.996;2022-09-09T02:42:58;13.80;99.90
20416;DHT22;10367;52.202;5.996;2022-09-09T02:45:33;13.80;99.90
20416;DHT22;10367;52.202;5.996;2022-09-09T02:48:11;13.80;99.90
20416;DHT22;10367;52.202;5.996;2022-09-09T02:50:48;13.80;99.90
20416;DHT22;10367;52.202;5.996;2022-09-09T02:53:23;13.80;99.90
20416;DHT22;10367;52.202;5.996;2022-09-09T02:55:55;13.80;99.90
20416;DHT22;10367;52.202;5.996;2022-09-09T02:58:27;13.80;99.90
20416;DHT22;10367;52.202;5.996;2022-09-09T03:00:57;13.80;99.90
20416;DHT22;10367;52.202;5.996;2022-09-09T03:03:28;13.80;99.90
20416;DHT22;10367;52.202;5.996;2022-09-09T03:05:57;13.70;99.90
20416;DHT22;10367;52.202;5.996;2022-09-09T03:08:26;13.70;99.90
20416;DHT22;10367;52.202;5.996;2022-09-09T03:10:57;13.70;99.90
20416;DHT22;10367;52.202;5.996;2022-09-09T03:13:30;13.70;99.90
20416;DHT22;10367;52.202;5.996;2022-09-09T03:15:59;13.70;99.90
20416;DHT22;10367;52.202;5.996;2022-09-09T03:18:27;13.60;99.90
20416;DHT22;10367;52.202;5.996;2022-09-09T03:20:56;13.60;99.90
20416;DHT22;10367;52.202;5.996;2022-09-09T03:23:27;13.60;99.90
20416;DHT22;10367;52.202;5.996;2022-09-09T03:25:57;13.60;99.90
20416;DHT22;10367;52.202;5.996;2022-09-09T03:28:26;13.60;99.90
20416;DHT22;10367;52.202;5.996;2022-09-09T03:31:01;13.50;99.90
20416;DHT22;10367;52.202;5.996;2022-09-09T03:33:30;13.50;99.90
20416;DHT22;10367;52.202;5.996;2022-09-09T03:35:59;13.50;99.90
20416;DHT22;10367;52.202;5.996;2022-09-09T03:38:27;13.50;99.90
20416;DHT22;10367;52.202;5.996;2022-09-09T03:40:57;13.40;99.90
20416;DHT22;10367;52.202;5.996;2022-09-09T03:43:26;13.40;99.90
20416;DHT22;10367;52.202;5.996;2022-09-09T03:45:55;13.40;99.90
20416;DHT22;10367;52.202;5.996;2022-09-09T03:48:27;13.30;99.90
20416;DHT22;10367;52.202;5.996;2022-09-09T03:50:56;13.30;99.90
20416;DHT22;10367;52.202;5.996;2022-09-09T03:53:28;13.30;99.90
20416;DHT22;10367;52.202;5.996;2022-09-09T03:55:57;13.30;99.90
20416;DHT22;10367;52.202;5.996;2022-09-09T03:58:27;13.30;99.90
20416;DHT22;10367;52.202;5.996;2022-09-09T04:00:57;13.30;99.90
20416;DHT22;10367;52.202;5.996;2022-09-09T04:03:28;13.40;99.90
20416;DHT22;10367;52.202;5.996;2022-09-09T04:05:59;13.40;99.90
20416;DHT22;10367;52.202;5.996;2022-09-09T04:08:30;13.40;99.90
20416;DHT22;10367;52.202;5.996;2022-09-09T04:11:00;13.50;99.90
20416;DHT22;10367;52.202;5.996;2022-09-09T04:13:36;13.40;99.90
20416;DHT22;10367;52.202;5.996;2022-09-09T04:16:06;13.50;99.90
20416;DHT22;10367;52.202;5.996;2022-09-09T04:18:37;13.50;99.90
20416;DHT22;10367;52.202;5.996;2022-09-09T04:21:06;13.50;99.90
20416;DHT22;10367;52.202;5.996;2022-09-09T04:23:35;13.60;99.90
20416;DHT22;10367;52.202;5.996;2022-09-09T04:26:04;13.70;99.90
20416;DHT22;10367;52.202;5.996;2022-09-09T04:28:35;13.70;99.90
20416;DHT22;10367;52.202;5.996;2022-09-09T04:31:05;13.80;99.90
20416;DHT22;10367;52.202;5.996;2022-09-09T04:33:35;13.70;99.90
20416;DHT22;10367;52.202;5.996;2022-09-09T04:36:08;13.70;99.90
20416;DHT22;10367;52.202;5.996;2022-09-09T04:38:36;13.70;99.90
20416;DHT22;10367;52.202;5.996;2022-09-09T04:41:05;13.70;99.90
20416;DHT22;10367;52.202;5.996;2022-09-09T04:43:34;13.70;99.90
20416;DHT22;10367;52.202;5.996;2022-09-09T04:46:04;13.70;99.90
20416;DHT22;10367;52.202;5.996;2022-09-09T04:48:33;13.70;99.90
20416;DHT22;10367;52.202;5.996;2022-09-09T04:51:04;13.60;99.90
20416;DHT22;10367;52.202;5.996;2022-09-09T04:53:35;13.60;99.90
20416;DHT22;10367;52.202;5.996;2022-09-09T04:56:06;13.70;99.90
20416;DHT22;10367;52.202;5.996;2022-09-09T04:58:36;13.60;99.90
20416;DHT22;10367;52.202;5.996;2022-09-09T05:01:06;13.60;99.90
20416;DHT22;10367;52.202;5.996;2022-09-09T05:03:36;13.60;99.90
20416;DHT22;10367;52.202;5.996;2022-09-09T05:06:07;13.70;99.90
20416;DHT22;10367;52.202;5.996;2022-09-09T05:08:39;13.70;99.90
20416;DHT22;10367;52.202;5.996;2022-09-09T05:11:17;13.60;99.90
20416;DHT22;10367;52.202;5.996;2022-09-09T05:13:46;13.60;99.90
20416;DHT22;10367;52.202;5.996;2022-09-09T05:16:15;13.70;99.90
20416;DHT22;10367;52.202;5.996;2022-09-09T05:18:44;13.70;99.90
20416;DHT22;10367;52.202;5.996;2022-09-09T05:21:14;13.80;99.90
20416;DHT22;10367;52.202;5.996;2022-09-09T05:23:45;13.70;99.90
20416;DHT22;10367;52.202;5.996;2022-09-09T05:26:20;13.70;99.90
20416;DHT22;10367;52.202;5.996;2022-09-09T05:28:49;13.70;99.90
20416;DHT22;10367;52.202;5.996;2022-09-09T05:31:19;13.60;99.90
20416;DHT22;10367;52.202;5.996;2022-09-09T05:33:48;13.60;99.90
20416;DHT22;10367;52.202;5.996;2022-09-09T05:36:19;13.60;99.90
20416;DHT22;10367;52.202;5.996;2022-09-09T05:38:50;13.60;99.90
20416;DHT22;10367;52.202;5.996;2022-09-09T05:41:21;13.70;99.90
20416;DHT22;10367;52.202;5.996;2022-09-09T05:43:51;13.70;99.90
20416;DHT22;10367;52.202;5.996;2022-09-09T05:46:21;13.70;99.90
20416;DHT22;10367;52.202;5.996;2022-09-09T05:48:50;13.80;99.90
20416;DHT22;10367;52.202;5.996;2022-09-09T05:51:21;13.90;99.90
20416;DHT22;10367;52.202;5.996;2022-09-09T05:53:53;14.00;99.90
20416;DHT22;10367;52.202;5.996;2022-09-09T05:56:23;14.10;99.90
20416;DHT22;10367;52.202;5.996;2022-09-09T05:58:53;14.20;99.90
20416;DHT22;10367;52.202;5.996;2022-09-09T06:01:24;14.20;99.90
20416;DHT22;10367;52.202;5.996;2022-09-09T06:03:54;14.20;99.90
20416;DHT22;10367;52.202;5.996;2022-09-09T06:06:25;14.20;99.90
20416;DHT22;10367;52.202;5.996;2022-09-09T06:08:56;14.20;99.90
20416;DHT22;10367;52.202;5.996;2022-09-09T06:11:27;14.20;99.90
20416;DHT22;10367;52.202;5.996;2022-09-09T06:13:58;14.20;99.90
20416;DHT22;10367;52.202;5.996;2022-09-09T06:16:28;14.20;99.90
20416;DHT22;10367;52.202;5.996;2022-09-09T06:18:57;14.20;99.90
20416;DHT22;10367;52.202;5.996;2022-09-09T06:21:27;14.20;99.90
20416;DHT22;10367;52.202;5.996;2022-09-09T06:23:58;14.20;99.90
20416;DHT22;10367;52.202;5.996;2022-09-09T06:26:29;14.20;99.90
20416;DHT22;10367;52.202;5.996;2022-09-09T06:28:59;14.30;99.90
20416;DHT22;10367;52.202;5.996;2022-09-09T06:31:30;14.40;99.90
20416;DHT22;10367;52.202;5.996;2022-09-09T06:34:03;14.40;99.90
20416;DHT22;10367;52.202;5.996;2022-09-09T06:36:34;14.40;99.90
20416;DHT22;10367;52.202;5.996;2022-09-09T06:39:06;14.40;99.90
20416;DHT22;10367;52.202;5.996;2022-09-09T06:41:41;14.50;99.90
20416;DHT22;10367;52.202;5.996;2022-09-09T06:44:10;14.60;99.90
20416;DHT22;10367;52.202;5.996;2022-09-09T06:46:40;14.60;99.90
20416;DHT22;10367;52.202;5.996;2022-09-09T06:49:08;14.60;99.90
20416;DHT22;10367;52.202;5.996;2022-09-09T06:51:38;14.70;99.90
20416;DHT22;10367;52.202;5.996;2022-09-09T06:54:12;14.70;99.90
20416;DHT22;10367;52.202;5.996;2022-09-09T06:56:42;14.70;99.90
20416;DHT22;10367;52.202;5.996;2022-09-09T06:59:12;14.70;99.90
20416;DHT22;10367;52.202;5.996;2022-09-09T07:01:42;14.80;99.90
20416;DHT22;10367;52.202;5.996;2022-09-09T07:04:11;14.90;99.90
20416;DHT22;10367;52.202;5.996;2022-09-09T07:06:42;14.90;99.90
20416;DHT22;10367;52.202;5.996;2022-09-09T07:09:14;15.00;99.90
20416;DHT22;10367;52.202;5.996;2022-09-09T07:11:45;15.20;99.90
20416;DHT22;10367;52.202;5.996;2022-09-09T07:14:14;15.40;99.90
20416;DHT22;10367;52.202;5.996;2022-09-09T07:16:43;15.50;99.90
20416;DHT22;10367;52.202;5.996;2022-09-09T07:19:13;15.50;99.90
20416;DHT22;10367;52.202;5.996;2022-09-09T07:21:43;15.70;99.90
20416;DHT22;10367;52.202;5.996;2022-09-09T07:24:14;15.90;99.90
20416;DHT22;10367;52.202;5.996;2022-09-09T07:26:42;16.10;99.90
20416;DHT22;10367;52.202;5.996;2022-09-09T07:29:13;16.30;99.90
20416;DHT22;10367;52.202;5.996;2022-09-09T07:31:47;16.50;99.90
20416;DHT22;10367;52.202;5.996;2022-09-09T07:34:16;16.60;99.90
20416;DHT22;10367;52.202;5.996;2022-09-09T07:36:45;16.70;99.90
20416;DHT22;10367;52.202;5.996;2022-09-09T07:39:15;16.70;99.90
20416;DHT22;10367;52.202;5.996;2022-09-09T07:41:46;16.90;99.90
20416;DHT22;10367;52.202;5.996;2022-09-09T07:44:17;17.10;99.90
20416;DHT22;10367;52.202;5.996;2022-09-09T07:46:46;17.20;99.90
20416;DHT22;10367;52.202;5.996;2022-09-09T07:49:14;17.30;99.90
20416;DHT22;10367;52.202;5.996;2022-09-09T07:51:52;17.30;99.90
20416;DHT22;10367;52.202;5.996;2022-09-09T07:54:23;17.40;99.90
20416;DHT22;10367;52.202;5.996;2022-09-09T07:56:52;17.50;99.90
20416;DHT22;10367;52.202;5.996;2022-09-09T07:59:20;17.50;99.90
20416;DHT22;10367;52.202;5.996;2022-09-09T08:01:51;17.60;99.90
20416;DHT22;10367;52.202;5.996;2022-09-09T08:04:23;17.70;99.90
20416;DHT22;10367;52.202;5.996;2022-09-09T08:06:54;17.70;99.90
20416;DHT22;10367;52.202;5.996;2022-09-09T08:09:25;17.80;99.90
20416;DHT22;10367;52.202;5.996;2022-09-09T08:11:57;17.90;99.90
20416;DHT22;10367;52.202;5.996;2022-09-09T08:14:26;17.90;99.90
20416;DHT22;10367;52.202;5.996;2022-09-09T08:16:55;17.80;99.90
20416;DHT22;10367;52.202;5.996;2022-09-09T08:19:25;17.60;99.90
20416;DHT22;10367;52.202;5.996;2022-09-09T08:21:56;17.50;99.90
20416;DHT22;10367;52.202;5.996;2022-09-09T08:24:26;17.50;99.90
20416;DHT22;10367;52.202;5.996;2022-09-09T08:26:55;17.50;99.90
20416;DHT22;10367;52.202;5.996;2022-09-09T08:29:24;17.50;99.90
20416;DHT22;10367;52.202;5.996;2022-09-09T08:31:54;17.60;99.90
20416;DHT22;10367;52.202;5.996;2022-09-09T08:34:25;17.70;99.90
20416;DHT22;10367;52.202;5.996;2022-09-09T08:36:54;18.00;99.90
20416;DHT22;10367;52.202;5.996;2022-09-09T08:39:24;18.30;99.90
20416;DHT22;10367;52.202;5.996;2022-09-09T08:42:17;18.40;99.90
20416;DHT22;10367;52.202;5.996;2022-09-09T08:45:02;18.50;99.90
20416;DHT22;10367;52.202;5.996;2022-09-09T08:47:38;18.60;99.90
20416;DHT22;10367;52.202;5.996;2022-09-09T08:50:19;18.70;99.90
20416;DHT22;10367;52.202;5.996;2022-09-09T08:52:56;18.70;99.90
20416;DHT22;10367;52.202;5.996;2022-09-09T08:55:36;18.50;99.90
20416;DHT22;10367;52.202;5.996;2022-09-09T08:58:12;18.30;99.90
20416;DHT22;10367;52.202;5.996;2022-09-09T09:00:55;18.20;99.90
20416;DHT22;10367;52.202;5.996;2022-09-09T09:03:33;18.10;99.90
20416;DHT22;10367;52.202;5.996;2022-09-09T09:06:09;18.10;99.90
20416;DHT22;10367;52.202;5.996;2022-09-09T09:08:46;18.00;99.90
20416;DHT22;10367;52.202;5.996;2022-09-09T09:11:17;17.90;99.90
20416;DHT22;10367;52.202;5.996;2022-09-09T09:13:52;17.90;99.90
20416;DHT22;10367;52.202;5.996;2022-09-09T09:16:27;17.90;99.90
20416;DHT22;10367;52.202;5.996;2022-09-09T09:19:00;18.00;99.90
20416;DHT22;10367;52.202;5.996;2022-09-09T09:21:34;18.10;99.90
20416;DHT22;10367;52.202;5.996;2022-09-09T09:24:07;18.20;99.90
20416;DHT22;10367;52.202;5.996;2022-09-09T09:26:46;18.30;99.90
20416;DHT22;10367;52.202;5.996;2022-09-09T09:29:18;18.40;99.90
20416;DHT22;10367;52.202;5.996;2022-09-09T09:31:52;18.50;99.90
20416;DHT22;10367;52.202;5.996;2022-09-09T09:34:22;18.50;99.90
20416;DHT22;10367;52.202;5.996;2022-09-09T09:36:54;18.50;99.90
20416;DHT22;10367;52.202;5.996;2022-09-09T09:39:25;18.40;99.90
20416;DHT22;10367;52.202;5.996;2022-09-09T09:42:17;18.40;99.90
20416;DHT22;10367;52.202;5.996;2022-09-09T09:44:51;18.40;99.90
20416;DHT22;10367;52.202;5.996;2022-09-09T09:47:22;18.50;99.90
20416;DHT22;10367;52.202;5.996;2022-09-09T09:49:52;18.70;99.90
20416;DHT22;10367;52.202;5.996;2022-09-09T09:52:23;18.90;99.90
20416;DHT22;10367;52.202;5.996;2022-09-09T09:54:53;18.90;99.90
20416;DHT22;10367;52.202;5.996;2022-09-09T09:57:26;18.90;99.90
20416;DHT22;10367;52.202;5.996;2022-09-09T10:00:13;18.80;99.90
20416;DHT22;10367;52.202;5.996;2022-09-09T10:02:44;18.70;99.90
20416;DHT22;10367;52.202;5.996;2022-09-09T10:05:15;18.60;99.90
20416;DHT22;10367;52.202;5.996;2022-09-09T10:08:03;18.40;99.90
20416;DHT22;10367;52.202;5.996;2022-09-09T10:10:46;18.40;99.90
20416;DHT22;10367;52.202;5.996;2022-09-09T10:13:22;18.40;99.90
20416;DHT22;10367;52.202;5.996;2022-09-09T10:16:03;18.60;99.90
20416;DHT22;10367;52.202;5.996;2022-09-09T10:18:55;18.80;99.90
20416;DHT22;10367;52.202;5.996;2022-09-09T10:21:48;19.10;99.90
20416;DHT22;10367;52.202;5.996;2022-09-09T10:24:31;19.60;99.90
20416;DHT22;10367;52.202;5.996;2022-09-09T10:27:10;20.00;99.90
20416;DHT22;10367;52.202;5.996;2022-09-09T10:32:46;20.40;99.90
20416;DHT22;10367;52.202;5.996;2022-09-09T10:35:29;20.50;99.90
20416;DHT22;10367;52.202;5.996;2022-09-09T10:38:15;20.40;99.90
20416;DHT22;10367;52.202;5.996;2022-09-09T10:40:58;20.10;99.90
20416;DHT22;10367;52.202;5.996;2022-09-09T10:43:44;19.80;99.90
20416;DHT22;10367;52.202;5.996;2022-09-09T10:46:19;19.60;99.90
20416;DHT22;10367;52.202;5.996;2022-09-09T10:49:10;19.50;99.90
20416;DHT22;10367;52.202;5.996;2022-09-09T10:51:55;19.30;99.90
20416;DHT22;10367;52.202;5.996;2022-09-09T10:54:42;19.10;99.90
20416;DHT22;10367;52.202;5.996;2022-09-09T10:57:26;18.90;99.90
20416;DHT22;10367;52.202;5.996;2022-09-09T11:00:01;18.70;99.90
20416;DHT22;10367;52.202;5.996;2022-09-09T11:02:33;18.60;99.90
20416;DHT22;10367;52.202;5.996;2022-09-09T11:05:08;18.50;99.90
20416;DHT22;10367;52.202;5.996;2022-09-09T11:07:41;18.50;99.90
20416;DHT22;10367;52.202;5.996;2022-09-09T11:10:20;18.60;99.90
20416;DHT22;10367;52.202;5.996;2022-09-09T11:12:55;19.00;99.90
20416;DHT22;10367;52.202;5.996;2022-09-09T11:15:39;19.10;99.90
20416;DHT22;10367;52.202;5.996;2022-09-09T11:18:13;19.20;99.90
20416;DHT22;10367;52.202;5.996;2022-09-09T11:20:47;19.00;99.90
20416;DHT22;10367;52.202;5.996;2022-09-09T11:23:22;19.00;99.90
20416;DHT22;10367;52.202;5.996;2022-09-09T11:25:55;19.00;99.90
20416;DHT22;10367;52.202;5.996;2022-09-09T11:28:36;19.10;99.90
20416;DHT22;10367;52.202;5.996;2022-09-09T11:31:21;19.30;99.90
20416;DHT22;10367;52.202;5.996;2022-09-09T11:34:08;19.60;99.90
20416;DHT22;10367;52.202;5.996;2022-09-09T11:37:04;19.60;99.90
20416;DHT22;10367;52.202;5.996;2022-09-09T11:40:00;19.70;99.90
20416;DHT22;10367;52.202;5.996;2022-09-09T11:42:31;19.80;99.90
20416;DHT22;10367;52.202;5.996;2022-09-09T11:45:09;19.90;99.90
20416;DHT22;10367;52.202;5.996;2022-09-09T11:47:40;19.90;99.90
20416;DHT22;10367;52.202;5.996;2022-09-09T11:50:34;19.70;99.90
20416;DHT22;10367;52.202;5.996;2022-09-09T11:53:20;19.40;99.90
20416;DHT22;10367;52.202;5.996;2022-09-09T11:56:06;19.20;99.90
20416;DHT22;10367;52.202;5.996;2022-09-09T11:58:38;19.20;99.90
20416;DHT22;10367;52.202;5.996;2022-09-09T12:01:28;19.30;99.90
20416;DHT22;10367;52.202;5.996;2022-09-09T12:04:13;19.60;99.90
20416;DHT22;10367;52.202;5.996;2022-09-09T12:06:51;19.90;99.90
20416;DHT22;10367;52.202;5.996;2022-09-09T12:09:28;20.10;99.90
20416;DHT22;10367;52.202;5.996;2022-09-09T12:12:21;20.20;99.90
20416;DHT22;10367;52.202;5.996;2022-09-09T12:17:46;20.10;99.90
20416;DHT22;10367;52.202;5.996;2022-09-09T12:20:17;20.30;99.90
20416;DHT22;10367;52.202;5.996;2022-09-09T12:23:07;20.50;99.90
20416;DHT22;10367;52.202;5.996;2022-09-09T12:26:09;20.30;99.90
20416;DHT22;10367;52.202;5.996;2022-09-09T12:28:48;20.00;99.90
20416;DHT22;10367;52.202;5.996;2022-09-09T12:31:22;19.70;99.90
20416;DHT22;10367;52.202;5.996;2022-09-09T12:33:53;19.50;99.90
20416;DHT22;10367;52.202;5.996;2022-09-09T12:36:27;19.40;99.90
20416;DHT22;10367;52.202;5.996;2022-09-09T12:38:59;19.60;99.90
20416;DHT22;10367;52.202;5.996;2022-09-09T12:41:39;19.60;99.90
20416;DHT22;10367;52.202;5.996;2022-09-09T12:44:09;19.50;99.90
20416;DHT22;10367;52.202;5.996;2022-09-09T12:46:40;19.60;99.90
20416;DHT22;10367;52.202;5.996;2022-09-09T12:49:26;19.60;99.90
20416;DHT22;10367;52.202;5.996;2022-09-09T12:51:55;19.50;99.90
20416;DHT22;10367;52.202;5.996;2022-09-09T12:54:26;19.50;99.90
20416;DHT22;10367;52.202;5.996;2022-09-09T12:56:57;19.60;99.90
20416;DHT22;10367;52.202;5.996;2022-09-09T12:59:34;19.80;99.90
20416;DHT22;10367;52.202;5.996;2022-09-09T13:02:16;19.90;99.90
20416;DHT22;10367;52.202;5.996;2022-09-09T13:04:46;20.00;99.90
20416;DHT22;10367;52.202;5.996;2022-09-09T13:07:18;20.10;99.90
20416;DHT22;10367;52.202;5.996;2022-09-09T13:09:48;20.40;99.90
20416;DHT22;10367;52.202;5.996;2022-09-09T13:12:20;20.50;99.90
20416;DHT22;10367;52.202;5.996;2022-09-09T13:14:53;20.80;99.90
20416;DHT22;10367;52.202;5.996;2022-09-09T13:17:23;21.10;99.90
20416;DHT22;10367;52.202;5.996;2022-09-09T13:19:52;21.10;99.90
20416;DHT22;10367;52.202;5.996;2022-09-09T13:22:31;20.70;99.90
20416;DHT22;10367;52.202;5.996;2022-09-09T13:25:04;20.50;99.90
20416;DHT22;10367;52.202;5.996;2022-09-09T13:27:37;20.50;99.90
20416;DHT22;10367;52.202;5.996;2022-09-09T13:30:23;20.60;99.90
20416;DHT22;10367;52.202;5.996;2022-09-09T13:33:19;20.60;99.90
20416;DHT22;10367;52.202;5.996;2022-09-09T13:35:52;20.60;99.90
20416;DHT22;10367;52.202;5.996;2022-09-09T13:38:22;20.50;99.90
20416;DHT22;10367;52.202;5.996;2022-09-09T13:40:56;20.50;99.90
20416;DHT22;10367;52.202;5.996;2022-09-09T13:43:29;20.40;99.90
20416;DHT22;10367;52.202;5.996;2022-09-09T13:46:00;20.40;99.90
20416;DHT22;10367;52.202;5.996;2022-09-09T13:48:29;20.20;99.90
20416;DHT22;10367;52.202;5.996;2022-09-09T13:51:01;20.00;99.90
20416;DHT22;10367;52.202;5.996;2022-09-09T13:53:30;19.90;99.90
20416;DHT22;10367;52.202;5.996;2022-09-09T13:55:59;19.70;99.90
20416;DHT22;10367;52.202;5.996;2022-09-09T13:58:30;19.80;99.90
20416;DHT22;10367;52.202;5.996;2022-09-09T14:00:59;19.90;99.90
20416;DHT22;10367;52.202;5.996;2022-09-09T14:03:27;20.10;99.90
20416;DHT22;10367;52.202;5.996;2022-09-09T14:05:56;20.10;99.90
20416;DHT22;10367;52.202;5.996;2022-09-09T14:08:26;20.20;99.90
20416;DHT22;10367;52.202;5.996;2022-09-09T14:10:56;20.20;99.90
20416;DHT22;10367;52.202;5.996;2022-09-09T14:13:26;20.20;99.90
20416;DHT22;10367;52.202;5.996;2022-09-09T14:15:56;20.10;99.90
20416;DHT22;10367;52.202;5.996;2022-09-09T14:18:25;20.00;99.90
20416;DHT22;10367;52.202;5.996;2022-09-09T14:20:54;19.90;99.90
20416;DHT22;10367;52.202;5.996;2022-09-09T14:23:24;19.80;99.90
20416;DHT22;10367;52.202;5.996;2022-09-09T14:25:53;19.80;99.90
20416;DHT22;10367;52.202;5.996;2022-09-09T14:28:22;19.80;99.90
20416;DHT22;10367;52.202;5.996;2022-09-09T14:31:12;19.90;99.90
20416;DHT22;10367;52.202;5.996;2022-09-09T14:33:41;20.30;99.90
20416;DHT22;10367;52.202;5.996;2022-09-09T14:36:10;20.60;99.90
20416;DHT22;10367;52.202;5.996;2022-09-09T14:38:39;20.70;99.90
20416;DHT22;10367;52.202;5.996;2022-09-09T14:41:10;20.80;99.90
20416;DHT22;10367;52.202;5.996;2022-09-09T14:43:39;20.80;99.90
20416;DHT22;10367;52.202;5.996;2022-09-09T14:46:09;20.70;99.90
20416;DHT22;10367;52.202;5.996;2022-09-09T14:48:39;20.60;99.90
20416;DHT22;10367;52.202;5.996;2022-09-09T14:51:10;20.40;99.90
20416;DHT22;10367;52.202;5.996;2022-09-09T14:53:40;20.30;99.90
20416;DHT22;10367;52.202;5.996;2022-09-09T14:56:10;20.20;99.90
20416;DHT22;10367;52.202;5.996;2022-09-09T14:58:39;20.30;99.90
20416;DHT22;10367;52.202;5.996;2022-09-09T15:01:09;20.30;99.90
20416;DHT22;10367;52.202;5.996;2022-09-09T15:03:41;20.30;99.90
20416;DHT22;10367;52.202;5.996;2022-09-09T15:06:11;20.40;99.90
20416;DHT22;10367;52.202;5.996;2022-09-09T15:08:42;20.40;99.90
20416;DHT22;10367;52.202;5.996;2022-09-09T15:11:13;20.50;99.90
20416;DHT22;10367;52.202;5.996;2022-09-09T15:13:43;20.70;99.90
20416;DHT22;10367;52.202;5.996;2022-09-09T15:16:12;21.00;99.90
20416;DHT22;10367;52.202;5.996;2022-09-09T15:18:44;21.30;99.90
20416;DHT22;10367;52.202;5.996;2022-09-09T15:21:15;21.50;99.90
20416;DHT22;10367;52.202;5.996;2022-09-09T15:23:44;21.70;99.90
20416;DHT22;10367;52.202;5.996;2022-09-09T15:26:12;21.60;99.90
20416;DHT22;10367;52.202;5.996;2022-09-09T15:28:43;21.60;99.90
20416;DHT22;10367;52.202;5.996;2022-09-09T15:31:14;21.80;99.90
20416;DHT22;10367;52.202;5.996;2022-09-09T15:33:49;22.10;99.90
20416;DHT22;10367;52.202;5.996;2022-09-09T15:36:19;22.00;99.90
20416;DHT22;10367;52.202;5.996;2022-09-09T15:38:48;21.80;99.90
20416;DHT22;10367;52.202;5.996;2022-09-09T15:41:18;21.50;99.90
20416;DHT22;10367;52.202;5.996;2022-09-09T15:43:48;21.50;99.90
20416;DHT22;10367;52.202;5.996;2022-09-09T15:46:26;21.60;99.90
20416;DHT22;10367;52.202;5.996;2022-09-09T15:48:58;21.70;99.90
20416;DHT22;10367;52.202;5.996;2022-09-09T15:51:31;21.80;99.90
20416;DHT22;10367;52.202;5.996;2022-09-09T15:54:10;21.80;99.90
20416;DHT22;10367;52.202;5.996;2022-09-09T15:56:41;22.00;99.90
20416;DHT22;10367;52.202;5.996;2022-09-09T15:59:09;21.90;99.90
20416;DHT22;10367;52.202;5.996;2022-09-09T16:01:38;21.80;99.90
20416;DHT22;10367;52.202;5.996;2022-09-09T16:04:09;21.90;99.90
20416;DHT22;10367;52.202;5.996;2022-09-09T16:06:39;21.90;99.90
20416;DHT22;10367;52.202;5.996;2022-09-09T16:09:08;22.00;99.90
20416;DHT22;10367;52.202;5.996;2022-09-09T16:11:38;22.10;99.90
20416;DHT22;10367;52.202;5.996;2022-09-09T16:14:08;21.90;99.90
20416;DHT22;10367;52.202;5.996;2022-09-09T16:16:38;21.60;99.90